sensor_id;sensor_type;location;lat;lon;timestamp;P1;durP1;ratioP1;P2;durP2;ratioP2
70780;SDS011;59514;48.810;2.134;2022-08-19T00:01:44;6.75;;;6.25;;
70780;SDS011;59514;48.810;2.134;2022-08-19T00:04:12;6.60;;;6.10;;
70780;SDS011;59514;48.810;2.134;2022-08-19T00:06:39;6.93;;;6.28;;
70780;SDS011;59514;48.810;2.134;2022-08-19T00:09:08;7.15;;;6.55;;
70780;SDS011;59514;48.810;2.134;2022-08-19T00:11:36;7.38;;;6.78;;
70780;SDS011;59514;48.810;2.134;2022-08-19T00:14:02;9.63;;;7.03;;
70780;SDS011;59514;48.810;2.134;2022-08-19T00:16:28;6.63;;;6.10;;
70780;SDS011;59514;48.810;2.134;2022-08-19T00:18:54;6.72;;;6.18;;
70780;SDS011;59514;48.810;2.134;2022-08-19T00:21:23;7.40;;;6.72;;
70780;SDS011;59514;48.810;2.134;2022-08-19T00:23:49;7.47;;;6.78;;
70780;SDS011;59514;48.810;2.134;2022-08-19T00:26:15;6.97;;;6.30;;
70780;SDS011;59514;48.810;2.134;2022-08-19T00:28:40;6.93;;;6.32;;
70780;SDS011;59514;48.810;2.134;2022-08-19T00:31:06;7.15;;;6.55;;
70780;SDS011;59514;48.810;2.134;2022-08-19T00:33:33;6.88;;;6.28;;
70780;SDS011;59514;48.810;2.134;2022-08-19T00:35:59;7.38;;;6.78;;
70780;SDS011;59514;48.810;2.134;2022-08-19T00:38:29;7.57;;;6.88;;
70780;SDS011;59514;48.810;2.134;2022-08-19T00:40:55;7.85;;;6.70;;
70780;SDS011;59514;48.810;2.134;2022-08-19T00:43:21;7.18;;;6.57;;
70780;SDS011;59514;48.810;2.134;2022-08-19T00:45:51;7.05;;;6.45;;
70780;SDS011;59514;48.810;2.134;2022-08-19T00:48:17;7.80;;;7.20;;
70780;SDS011;59514;48.810;2.134;2022-08-19T00:50:44;7.53;;;6.93;;
70780;SDS011;59514;48.810;2.134;2022-08-19T00:53:14;7.70;;;6.97;;
70780;SDS011;59514;48.810;2.134;2022-08-19T00:55:47;8.05;;;7.28;;
70780;SDS011;59514;48.810;2.134;2022-08-19T00:58:16;7.80;;;7.10;;
70780;SDS011;59514;48.810;2.134;2022-08-19T01:00:44;8.43;;;7.72;;
70780;SDS011;59514;48.810;2.134;2022-08-19T01:03:12;10.60;;;7.57;;
70780;SDS011;59514;48.810;2.134;2022-08-19T01:05:41;8.32;;;7.53;;
70780;SDS011;59514;48.810;2.134;2022-08-19T01:08:08;8.60;;;7.70;;
70780;SDS011;59514;48.810;2.134;2022-08-19T01:10:42;8.88;;;7.85;;
70780;SDS011;59514;48.810;2.134;2022-08-19T01:13:21;7.65;;;7.05;;
70780;SDS011;59514;48.810;2.134;2022-08-19T01:15:54;8.30;;;7.28;;
70780;SDS011;59514;48.810;2.134;2022-08-19T01:18:22;8.18;;;7.38;;
70780;SDS011;59514;48.810;2.134;2022-08-19T01:20:48;8.68;;;7.93;;
70780;SDS011;59514;48.810;2.134;2022-08-19T01:23:14;8.30;;;7.50;;
70780;SDS011;59514;48.810;2.134;2022-08-19T01:25:42;8.38;;;7.60;;
70780;SDS011;59514;48.810;2.134;2022-08-19T01:28:29;8.77;;;8.05;;
70780;SDS011;59514;48.810;2.134;2022-08-19T01:30:55;8.23;;;7.53;;
70780;SDS011;59514;48.810;2.134;2022-08-19T01:33:20;8.85;;;8.05;;
70780;SDS011;59514;48.810;2.134;2022-08-19T01:35:46;9.23;;;8.50;;
70780;SDS011;59514;48.810;2.134;2022-08-19T01:38:25;8.85;;;8.10;;
70780;SDS011;59514;48.810;2.134;2022-08-19T01:40:52;9.02;;;8.23;;
70780;SDS011;59514;48.810;2.134;2022-08-19T01:43:17;10.10;;;9.20;;
70780;SDS011;59514;48.810;2.134;2022-08-19T01:45:44;9.05;;;8.18;;
70780;SDS011;59514;48.810;2.134;2022-08-19T01:48:10;9.00;;;8.18;;
70780;SDS011;59514;48.810;2.134;2022-08-19T01:50:36;9.90;;;8.50;;
70780;SDS011;59514;48.810;2.134;2022-08-19T01:53:02;9.63;;;8.82;;
70780;SDS011;59514;48.810;2.134;2022-08-19T01:55:29;8.85;;;8.15;;
70780;SDS011;59514;48.810;2.134;2022-08-19T01:57:55;10.48;;;9.57;;
70780;SDS011;59514;48.810;2.134;2022-08-19T02:00:25;10.18;;;9.27;;
70780;SDS011;59514;48.810;2.134;2022-08-19T02:02:52;10.88;;;8.73;;
70780;SDS011;59514;48.810;2.134;2022-08-19T02:05:18;9.40;;;8.50;;
70780;SDS011;59514;48.810;2.134;2022-08-19T02:07:45;9.48;;;8.57;;
70780;SDS011;59514;48.810;2.134;2022-08-19T02:10:13;10.00;;;9.00;;
70780;SDS011;59514;48.810;2.134;2022-08-19T02:12:42;9.90;;;9.00;;
70780;SDS011;59514;48.810;2.134;2022-08-19T02:15:07;9.20;;;8.30;;
70780;SDS011;59514;48.810;2.134;2022-08-19T02:17:33;9.13;;;8.25;;
70780;SDS011;59514;48.810;2.134;2022-08-19T02:19:59;9.45;;;8.57;;
70780;SDS011;59514;48.810;2.134;2022-08-19T02:22:25;9.10;;;8.30;;
70780;SDS011;59514;48.810;2.134;2022-08-19T02:24:51;9.25;;;8.45;;
70780;SDS011;59514;48.810;2.134;2022-08-19T02:27:17;8.70;;;7.90;;
70780;SDS011;59514;48.810;2.134;2022-08-19T02:29:43;8.90;;;8.15;;
70780;SDS011;59514;48.810;2.134;2022-08-19T02:32:10;9.43;;;8.52;;
70780;SDS011;59514;48.810;2.134;2022-08-19T02:34:35;8.98;;;8.13;;
70780;SDS011;59514;48.810;2.134;2022-08-19T02:37:00;9.00;;;8.20;;
70780;SDS011;59514;48.810;2.134;2022-08-19T02:39:26;9.23;;;8.23;;
70780;SDS011;59514;48.810;2.134;2022-08-19T02:41:51;9.40;;;8.60;;
70780;SDS011;59514;48.810;2.134;2022-08-19T02:44:17;9.63;;;8.77;;
70780;SDS011;59514;48.810;2.134;2022-08-19T02:46:42;9.23;;;8.43;;
70780;SDS011;59514;48.810;2.134;2022-08-19T02:49:13;9.55;;;8.65;;
70780;SDS011;59514;48.810;2.134;2022-08-19T02:51:41;9.95;;;9.05;;
70780;SDS011;59514;48.810;2.134;2022-08-19T02:54:08;9.15;;;8.40;;
70780;SDS011;59514;48.810;2.134;2022-08-19T02:56:36;10.25;;;9.32;;
70780;SDS011;59514;48.810;2.134;2022-08-19T02:59:03;10.00;;;9.00;;
70780;SDS011;59514;48.810;2.134;2022-08-19T03:01:34;9.45;;;8.65;;
70780;SDS011;59514;48.810;2.134;2022-08-19T03:04:01;10.02;;;9.13;;
70780;SDS011;59514;48.810;2.134;2022-08-19T03:06:29;10.70;;;9.55;;
70780;SDS011;59514;48.810;2.134;2022-08-19T03:08:55;10.38;;;9.48;;
70780;SDS011;59514;48.810;2.134;2022-08-19T03:11:25;10.35;;;9.52;;
70780;SDS011;59514;48.810;2.134;2022-08-19T03:13:56;10.57;;;9.55;;
70780;SDS011;59514;48.810;2.134;2022-08-19T03:16:23;11.18;;;10.07;;
70780;SDS011;59514;48.810;2.134;2022-08-19T03:18:50;10.82;;;9.82;;
70780;SDS011;59514;48.810;2.134;2022-08-19T03:21:17;11.13;;;10.13;;
70780;SDS011;59514;48.810;2.134;2022-08-19T03:23:44;11.13;;;9.50;;
70780;SDS011;59514;48.810;2.134;2022-08-19T03:26:09;11.15;;;10.18;;
70780;SDS011;59514;48.810;2.134;2022-08-19T03:28:35;11.20;;;10.20;;
70780;SDS011;59514;48.810;2.134;2022-08-19T03:31:05;11.73;;;10.63;;
70780;SDS011;59514;48.810;2.134;2022-08-19T03:33:32;10.93;;;9.93;;
70780;SDS011;59514;48.810;2.134;2022-08-19T03:36:09;11.13;;;9.93;;
70780;SDS011;59514;48.810;2.134;2022-08-19T03:38:49;10.57;;;9.57;;
70780;SDS011;59514;48.810;2.134;2022-08-19T03:41:18;11.20;;;10.10;;
70780;SDS011;59514;48.810;2.134;2022-08-19T03:43:44;11.98;;;10.75;;
70780;SDS011;59514;48.810;2.134;2022-08-19T03:46:16;11.27;;;10.27;;
70780;SDS011;59514;48.810;2.134;2022-08-19T03:48:43;10.77;;;9.85;;
70780;SDS011;59514;48.810;2.134;2022-08-19T03:51:16;12.07;;;11.05;;
70780;SDS011;59514;48.810;2.134;2022-08-19T03:53:52;11.25;;;10.25;;
70780;SDS011;59514;48.810;2.134;2022-08-19T03:56:19;10.93;;;9.93;;
70780;SDS011;59514;48.810;2.134;2022-08-19T03:58:45;11.75;;;10.65;;
70780;SDS011;59514;48.810;2.134;2022-08-19T04:01:11;11.40;;;10.40;;
70780;SDS011;59514;48.810;2.134;2022-08-19T04:03:39;11.90;;;10.75;;
70780;SDS011;59514;48.810;2.134;2022-08-19T04:06:18;11.52;;;10.48;;
70780;SDS011;59514;48.810;2.134;2022-08-19T04:08:49;11.45;;;10.40;;
70780;SDS011;59514;48.810;2.134;2022-08-19T04:11:17;11.43;;;10.32;;
70780;SDS011;59514;48.810;2.134;2022-08-19T04:13:46;11.38;;;10.25;;
70780;SDS011;59514;48.810;2.134;2022-08-19T04:16:11;11.32;;;10.23;;
70780;SDS011;59514;48.810;2.134;2022-08-19T04:18:37;10.55;;;9.65;;
70780;SDS011;59514;48.810;2.134;2022-08-19T04:21:05;11.82;;;10.77;;
70780;SDS011;59514;48.810;2.134;2022-08-19T04:23:32;11.43;;;10.38;;
70780;SDS011;59514;48.810;2.134;2022-08-19T04:25:58;10.82;;;9.60;;
70780;SDS011;59514;48.810;2.134;2022-08-19T04:28:24;10.15;;;9.20;;
70780;SDS011;59514;48.810;2.134;2022-08-19T04:30:51;8.98;;;8.20;;
70780;SDS011;59514;48.810;2.134;2022-08-19T04:33:19;8.68;;;7.97;;
70780;SDS011;59514;48.810;2.134;2022-08-19T04:35:48;9.55;;;8.65;;
70780;SDS011;59514;48.810;2.134;2022-08-19T04:38:15;8.85;;;8.05;;
70780;SDS011;59514;48.810;2.134;2022-08-19T04:40:44;8.80;;;7.90;;
70780;SDS011;59514;48.810;2.134;2022-08-19T04:43:30;9.13;;;8.38;;
70780;SDS011;59514;48.810;2.134;2022-08-19T04:45:56;7.93;;;7.22;;
70780;SDS011;59514;48.810;2.134;2022-08-19T04:48:23;8.30;;;7.38;;
70780;SDS011;59514;48.810;2.134;2022-08-19T04:50:55;7.53;;;6.93;;
70780;SDS011;59514;48.810;2.134;2022-08-19T04:53:30;7.70;;;7.07;;
70780;SDS011;59514;48.810;2.134;2022-08-19T04:55:57;8.77;;;7.22;;
70780;SDS011;59514;48.810;2.134;2022-08-19T04:58:24;7.50;;;6.78;;
70780;SDS011;59514;48.810;2.134;2022-08-19T05:00:51;7.60;;;6.95;;
70780;SDS011;59514;48.810;2.134;2022-08-19T05:03:16;6.97;;;6.28;;
70780;SDS011;59514;48.810;2.134;2022-08-19T05:05:43;9.60;;;6.75;;
70780;SDS011;59514;48.810;2.134;2022-08-19T05:08:09;8.20;;;6.68;;
70780;SDS011;59514;48.810;2.134;2022-08-19T05:10:36;7.35;;;6.65;;
70780;SDS011;59514;48.810;2.134;2022-08-19T05:13:03;6.75;;;6.15;;
70780;SDS011;59514;48.810;2.134;2022-08-19T05:15:29;6.50;;;6.00;;
70780;SDS011;59514;48.810;2.134;2022-08-19T05:17:54;7.32;;;6.72;;
70780;SDS011;59514;48.810;2.134;2022-08-19T05:20:38;7.22;;;6.53;;
70780;SDS011;59514;48.810;2.134;2022-08-19T05:23:22;8.40;;;7.60;;
70780;SDS011;59514;48.810;2.134;2022-08-19T05:25:48;8.25;;;7.43;;
70780;SDS011;59514;48.810;2.134;2022-08-19T05:28:14;8.50;;;7.28;;
70780;SDS011;59514;48.810;2.134;2022-08-19T05:30:39;8.15;;;7.30;;
70780;SDS011;59514;48.810;2.134;2022-08-19T05:33:05;8.82;;;7.93;;
70780;SDS011;59514;48.810;2.134;2022-08-19T05:35:34;8.10;;;7.38;;
70780;SDS011;59514;48.810;2.134;2022-08-19T05:38:01;8.63;;;7.78;;
70780;SDS011;59514;48.810;2.134;2022-08-19T05:40:26;6.88;;;6.25;;
70780;SDS011;59514;48.810;2.134;2022-08-19T05:42:52;7.15;;;6.47;;
70780;SDS011;59514;48.810;2.134;2022-08-19T05:45:18;9.18;;;5.80;;
70780;SDS011;59514;48.810;2.134;2022-08-19T05:47:43;5.40;;;4.95;;
70780;SDS011;59514;48.810;2.134;2022-08-19T05:50:09;6.00;;;5.18;;
70780;SDS011;59514;48.810;2.134;2022-08-19T05:52:36;5.00;;;4.47;;
70780;SDS011;59514;48.810;2.134;2022-08-19T05:55:03;4.72;;;4.05;;
70780;SDS011;59514;48.810;2.134;2022-08-19T05:57:29;4.63;;;3.75;;
70780;SDS011;59514;48.810;2.134;2022-08-19T05:59:55;3.80;;;3.40;;
70780;SDS011;59514;48.810;2.134;2022-08-19T06:02:21;5.03;;;3.47;;
70780;SDS011;59514;48.810;2.134;2022-08-19T06:04:47;3.70;;;3.05;;
70780;SDS011;59514;48.810;2.134;2022-08-19T06:07:12;3.42;;;2.80;;
70780;SDS011;59514;48.810;2.134;2022-08-19T06:09:37;3.38;;;2.60;;
70780;SDS011;59514;48.810;2.134;2022-08-19T06:12:03;3.13;;;2.40;;
70780;SDS011;59514;48.810;2.134;2022-08-19T06:14:30;2.78;;;2.58;;
70780;SDS011;59514;48.810;2.134;2022-08-19T06:16:57;3.17;;;2.45;;
70780;SDS011;59514;48.810;2.134;2022-08-19T06:19:25;3.60;;;2.45;;
70780;SDS011;59514;48.810;2.134;2022-08-19T06:21:51;3.78;;;2.33;;
70780;SDS011;59514;48.810;2.134;2022-08-19T06:24:18;2.95;;;2.63;;
70780;SDS011;59514;48.810;2.134;2022-08-19T06:26:47;5.00;;;2.80;;
70780;SDS011;59514;48.810;2.134;2022-08-19T06:29:14;3.50;;;2.28;;
70780;SDS011;59514;48.810;2.134;2022-08-19T06:31:42;5.53;;;2.58;;
70780;SDS011;59514;48.810;2.134;2022-08-19T06:34:09;2.95;;;2.65;;
70780;SDS011;59514;48.810;2.134;2022-08-19T06:36:37;3.72;;;2.40;;
70780;SDS011;59514;48.810;2.134;2022-08-19T06:39:08;3.30;;;3.00;;
70780;SDS011;59514;48.810;2.134;2022-08-19T06:41:39;3.60;;;2.90;;
70780;SDS011;59514;48.810;2.134;2022-08-19T06:44:06;4.63;;;3.20;;
70780;SDS011;59514;48.810;2.134;2022-08-19T06:46:32;5.05;;;3.47;;
70780;SDS011;59514;48.810;2.134;2022-08-19T06:48:58;5.38;;;3.22;;
70780;SDS011;59514;48.810;2.134;2022-08-19T06:51:24;5.40;;;3.00;;
70780;SDS011;59514;48.810;2.134;2022-08-19T06:53:50;5.55;;;3.08;;
70780;SDS011;59514;48.810;2.134;2022-08-19T06:56:18;4.50;;;2.83;;
70780;SDS011;59514;48.810;2.134;2022-08-19T06:58:46;3.40;;;3.10;;
70780;SDS011;59514;48.810;2.134;2022-08-19T07:01:16;3.75;;;2.88;;
70780;SDS011;59514;48.810;2.134;2022-08-19T07:03:41;3.60;;;2.78;;
70780;SDS011;59514;48.810;2.134;2022-08-19T07:06:07;4.00;;;2.63;;
70780;SDS011;59514;48.810;2.134;2022-08-19T07:08:35;4.05;;;2.70;;
70780;SDS011;59514;48.810;2.134;2022-08-19T07:11:02;5.28;;;3.28;;
70780;SDS011;59514;48.810;2.134;2022-08-19T07:13:32;4.53;;;2.72;;
70780;SDS011;59514;48.810;2.134;2022-08-19T07:18:30;6.90;;;2.83;;
70780;SDS011;59514;48.810;2.134;2022-08-19T07:21:06;4.07;;;2.80;;
70780;SDS011;59514;48.810;2.134;2022-08-19T07:23:33;3.40;;;2.38;;
70780;SDS011;59514;48.810;2.134;2022-08-19T07:26:04;4.90;;;2.40;;
70780;SDS011;59514;48.810;2.134;2022-08-19T07:28:31;5.25;;;2.38;;
70780;SDS011;59514;48.810;2.134;2022-08-19T07:30:56;2.55;;;2.33;;
70780;SDS011;59514;48.810;2.134;2022-08-19T07:33:22;4.57;;;1.80;;
70780;SDS011;59514;48.810;2.134;2022-08-19T07:35:47;2.83;;;2.05;;
70780;SDS011;59514;48.810;2.134;2022-08-19T07:38:13;2.45;;;1.95;;
70780;SDS011;59514;48.810;2.134;2022-08-19T07:40:40;2.20;;;1.80;;
70780;SDS011;59514;48.810;2.134;2022-08-19T07:43:06;3.42;;;1.80;;
70780;SDS011;59514;48.810;2.134;2022-08-19T07:45:31;2.95;;;2.00;;
70780;SDS011;59514;48.810;2.134;2022-08-19T07:47:57;2.70;;;2.10;;
70780;SDS011;59514;48.810;2.134;2022-08-19T07:50:22;2.60;;;1.70;;
70780;SDS011;59514;48.810;2.134;2022-08-19T07:52:48;2.85;;;2.00;;
70780;SDS011;59514;48.810;2.134;2022-08-19T07:55:15;2.38;;;2.08;;
70780;SDS011;59514;48.810;2.134;2022-08-19T07:57:42;3.35;;;2.30;;
70780;SDS011;59514;48.810;2.134;2022-08-19T08:00:07;3.80;;;2.20;;
70780;SDS011;59514;48.810;2.134;2022-08-19T08:02:33;4.28;;;1.92;;
70780;SDS011;59514;48.810;2.134;2022-08-19T08:04:58;3.20;;;1.67;;
70780;SDS011;59514;48.810;2.134;2022-08-19T08:07:42;3.05;;;2.00;;
70780;SDS011;59514;48.810;2.134;2022-08-19T08:10:26;3.85;;;1.88;;
70780;SDS011;59514;48.810;2.134;2022-08-19T08:12:52;3.00;;;1.70;;
70780;SDS011;59514;48.810;2.134;2022-08-19T08:15:17;3.40;;;1.70;;
70780;SDS011;59514;48.810;2.134;2022-08-19T08:17:44;3.88;;;1.70;;
70780;SDS011;59514;48.810;2.134;2022-08-19T08:20:09;2.95;;;1.77;;
70780;SDS011;59514;48.810;2.134;2022-08-19T08:22:35;2.97;;;1.67;;
70780;SDS011;59514;48.810;2.134;2022-08-19T08:25:21;2.13;;;1.63;;
70780;SDS011;59514;48.810;2.134;2022-08-19T08:27:48;4.55;;;1.85;;
70780;SDS011;59514;48.810;2.134;2022-08-19T08:30:25;3.33;;;1.88;;
70780;SDS011;59514;48.810;2.134;2022-08-19T08:32:52;4.15;;;2.20;;
70780;SDS011;59514;48.810;2.134;2022-08-19T08:35:19;2.92;;;2.08;;
70780;SDS011;59514;48.810;2.134;2022-08-19T08:37:46;2.30;;;1.42;;
70780;SDS011;59514;48.810;2.134;2022-08-19T08:43:07;2.33;;;1.65;;
70780;SDS011;59514;48.810;2.134;2022-08-19T08:45:42;3.15;;;1.90;;
70780;SDS011;59514;48.810;2.134;2022-08-19T08:48:19;2.65;;;1.73;;
70780;SDS011;59514;48.810;2.134;2022-08-19T08:50:56;2.35;;;1.83;;
70780;SDS011;59514;48.810;2.134;2022-08-19T08:53:24;2.35;;;1.50;;
70780;SDS011;59514;48.810;2.134;2022-08-19T08:55:50;2.88;;;1.50;;
70780;SDS011;59514;48.810;2.134;2022-08-19T08:58:21;2.10;;;1.50;;
70780;SDS011;59514;48.810;2.134;2022-08-19T09:00:53;1.63;;;1.20;;
70780;SDS011;59514;48.810;2.134;2022-08-19T09:03:19;3.70;;;1.50;;
70780;SDS011;59514;48.810;2.134;2022-08-19T09:08:30;1.38;;;1.25;;
70780;SDS011;59514;48.810;2.134;2022-08-19T09:11:06;2.58;;;1.33;;
70780;SDS011;59514;48.810;2.134;2022-08-19T09:16:07;1.27;;;1.13;;
70780;SDS011;59514;48.810;2.134;2022-08-19T09:18:39;2.03;;;1.30;;
70780;SDS011;59514;48.810;2.134;2022-08-19T09:21:12;2.42;;;1.40;;
70780;SDS011;59514;48.810;2.134;2022-08-19T09:23:40;3.75;;;1.35;;
70780;SDS011;59514;48.810;2.134;2022-08-19T09:26:15;2.38;;;1.10;;
70780;SDS011;59514;48.810;2.134;2022-08-19T09:28:43;2.85;;;1.10;;
70780;SDS011;59514;48.810;2.134;2022-08-19T09:31:11;1.75;;;1.13;;
70780;SDS011;59514;48.810;2.134;2022-08-19T09:33:37;1.67;;;1.00;;
70780;SDS011;59514;48.810;2.134;2022-08-19T09:36:05;1.40;;;1.02;;
70780;SDS011;59514;48.810;2.134;2022-08-19T09:38:32;3.00;;;1.10;;
70780;SDS011;59514;48.810;2.134;2022-08-19T09:41:01;2.40;;;1.30;;
70780;SDS011;59514;48.810;2.134;2022-08-19T09:43:29;1.25;;;0.85;;
70780;SDS011;59514;48.810;2.134;2022-08-19T09:45:54;1.98;;;1.30;;
70780;SDS011;59514;48.810;2.134;2022-08-19T09:48:20;2.20;;;1.13;;
70780;SDS011;59514;48.810;2.134;2022-08-19T09:50:46;3.05;;;1.17;;
70780;SDS011;59514;48.810;2.134;2022-08-19T09:53:11;1.85;;;1.10;;
70780;SDS011;59514;48.810;2.134;2022-08-19T09:55:41;1.58;;;1.10;;
70780;SDS011;59514;48.810;2.134;2022-08-19T09:58:07;1.52;;;0.90;;
70780;SDS011;59514;48.810;2.134;2022-08-19T10:00:33;2.45;;;1.30;;
70780;SDS011;59514;48.810;2.134;2022-08-19T10:02:58;2.33;;;1.00;;
70780;SDS011;59514;48.810;2.134;2022-08-19T10:05:23;1.35;;;1.25;;
70780;SDS011;59514;48.810;2.134;2022-08-19T10:08:08;1.15;;;1.00;;
70780;SDS011;59514;48.810;2.134;2022-08-19T10:10:35;1.52;;;0.90;;
70780;SDS011;59514;48.810;2.134;2022-08-19T10:13:01;3.83;;;1.23;;
70780;SDS011;59514;48.810;2.134;2022-08-19T10:15:26;2.65;;;1.40;;
70780;SDS011;59514;48.810;2.134;2022-08-19T10:17:51;1.58;;;1.45;;
70780;SDS011;59514;48.810;2.134;2022-08-19T10:20:17;1.85;;;1.13;;
70780;SDS011;59514;48.810;2.134;2022-08-19T10:22:42;2.30;;;1.45;;
70780;SDS011;59514;48.810;2.134;2022-08-19T10:25:09;3.00;;;1.10;;
70780;SDS011;59514;48.810;2.134;2022-08-19T10:27:34;1.25;;;1.15;;
70780;SDS011;59514;48.810;2.134;2022-08-19T10:29:59;2.85;;;1.08;;
70780;SDS011;59514;48.810;2.134;2022-08-19T10:32:26;2.28;;;1.20;;
70780;SDS011;59514;48.810;2.134;2022-08-19T10:34:52;1.63;;;1.02;;
70780;SDS011;59514;48.810;2.134;2022-08-19T10:37:17;1.75;;;1.10;;
70780;SDS011;59514;48.810;2.134;2022-08-19T10:39:43;1.95;;;1.00;;
70780;SDS011;59514;48.810;2.134;2022-08-19T10:42:13;3.13;;;1.35;;
70780;SDS011;59514;48.810;2.134;2022-08-19T10:44:39;2.53;;;1.40;;
70780;SDS011;59514;48.810;2.134;2022-08-19T10:47:05;1.95;;;1.35;;
70780;SDS011;59514;48.810;2.134;2022-08-19T10:49:31;1.27;;;1.00;;
70780;SDS011;59514;48.810;2.134;2022-08-19T10:51:57;1.30;;;1.10;;
70780;SDS011;59514;48.810;2.134;2022-08-19T10:54:41;4.28;;;1.38;;
70780;SDS011;59514;48.810;2.134;2022-08-19T10:57:25;1.00;;;0.93;;
70780;SDS011;59514;48.810;2.134;2022-08-19T10:59:54;1.73;;;1.02;;
70780;SDS011;59514;48.810;2.134;2022-08-19T11:02:20;2.03;;;1.17;;
70780;SDS011;59514;48.810;2.134;2022-08-19T11:04:46;1.10;;;1.00;;
70780;SDS011;59514;48.810;2.134;2022-08-19T11:07:12;1.25;;;1.08;;
70780;SDS011;59514;48.810;2.134;2022-08-19T11:09:39;3.65;;;0.95;;
70780;SDS011;59514;48.810;2.134;2022-08-19T11:12:06;0.70;;;0.60;;
70780;SDS011;59514;48.810;2.134;2022-08-19T11:14:33;1.88;;;0.65;;
70780;SDS011;59514;48.810;2.134;2022-08-19T11:16:58;0.73;;;0.65;;
70780;SDS011;59514;48.810;2.134;2022-08-19T11:19:24;1.30;;;0.57;;
70780;SDS011;59514;48.810;2.134;2022-08-19T11:21:49;2.10;;;0.73;;
70780;SDS011;59514;48.810;2.134;2022-08-19T11:24:18;0.63;;;0.60;;
70780;SDS011;59514;48.810;2.134;2022-08-19T11:26:45;1.45;;;0.90;;
70780;SDS011;59514;48.810;2.134;2022-08-19T11:29:14;1.58;;;0.77;;
70780;SDS011;59514;48.810;2.134;2022-08-19T11:31:41;0.95;;;0.60;;
70780;SDS011;59514;48.810;2.134;2022-08-19T11:34:12;3.40;;;0.90;;
70780;SDS011;59514;48.810;2.134;2022-08-19T11:36:40;0.75;;;0.60;;
70780;SDS011;59514;48.810;2.134;2022-08-19T11:39:08;1.27;;;0.63;;
70780;SDS011;59514;48.810;2.134;2022-08-19T11:41:35;1.00;;;0.77;;
70780;SDS011;59514;48.810;2.134;2022-08-19T11:44:00;1.20;;;0.70;;
70780;SDS011;59514;48.810;2.134;2022-08-19T11:46:28;1.65;;;0.70;;
70780;SDS011;59514;48.810;2.134;2022-08-19T11:48:54;0.93;;;0.60;;
70780;SDS011;59514;48.810;2.134;2022-08-19T11:51:21;0.55;;;0.50;;
70780;SDS011;59514;48.810;2.134;2022-08-19T11:53:49;0.88;;;0.75;;
70780;SDS011;59514;48.810;2.134;2022-08-19T11:56:16;1.15;;;0.80;;
70780;SDS011;59514;48.810;2.134;2022-08-19T11:58:42;1.92;;;0.88;;
70780;SDS011;59514;48.810;2.134;2022-08-19T12:01:08;0.88;;;0.65;;
70780;SDS011;59514;48.810;2.134;2022-08-19T12:03:36;4.05;;;0.60;;
70780;SDS011;59514;48.810;2.134;2022-08-19T12:06:05;3.15;;;0.70;;
70780;SDS011;59514;48.810;2.134;2022-08-19T12:08:32;0.95;;;0.60;;
70780;SDS011;59514;48.810;2.134;2022-08-19T12:10:58;1.35;;;0.75;;
70780;SDS011;59514;48.810;2.134;2022-08-19T12:13:25;1.95;;;0.70;;
70780;SDS011;59514;48.810;2.134;2022-08-19T12:15:51;2.45;;;0.85;;
70780;SDS011;59514;48.810;2.134;2022-08-19T12:18:18;0.70;;;0.70;;
70780;SDS011;59514;48.810;2.134;2022-08-19T12:20:43;1.20;;;0.70;;
70780;SDS011;59514;48.810;2.134;2022-08-19T12:23:09;1.45;;;0.90;;
70780;SDS011;59514;48.810;2.134;2022-08-19T12:25:43;1.60;;;0.80;;
70780;SDS011;59514;48.810;2.134;2022-08-19T12:28:17;1.85;;;0.98;;
70780;SDS011;59514;48.810;2.134;2022-08-19T12:30:44;1.80;;;1.00;;
70780;SDS011;59514;48.810;2.134;2022-08-19T12:33:09;1.35;;;0.90;;
70780;SDS011;59514;48.810;2.134;2022-08-19T12:35:35;2.22;;;1.00;;
70780;SDS011;59514;48.810;2.134;2022-08-19T12:38:00;1.33;;;0.90;;
70780;SDS011;59514;48.810;2.134;2022-08-19T12:40:27;2.20;;;1.02;;
70780;SDS011;59514;48.810;2.134;2022-08-19T12:42:53;1.92;;;1.73;;
70780;SDS011;59514;48.810;2.134;2022-08-19T12:45:18;1.50;;;1.40;;
70780;SDS011;59514;48.810;2.134;2022-08-19T12:47:44;2.40;;;1.38;;
70780;SDS011;59514;48.810;2.134;2022-08-19T12:50:11;1.50;;;1.25;;
70780;SDS011;59514;48.810;2.134;2022-08-19T12:52:36;1.10;;;1.00;;
70780;SDS011;59514;48.810;2.134;2022-08-19T12:55:02;1.20;;;0.88;;
70780;SDS011;59514;48.810;2.134;2022-08-19T12:57:29;2.40;;;1.00;;
70780;SDS011;59514;48.810;2.134;2022-08-19T12:59:56;2.22;;;0.93;;
70780;SDS011;59514;48.810;2.134;2022-08-19T13:02:21;1.23;;;0.82;;
70780;SDS011;59514;48.810;2.134;2022-08-19T13:04:47;0.80;;;0.70;;
70780;SDS011;59514;48.810;2.134;2022-08-19T13:07:13;1.88;;;0.70;;
70780;SDS011;59514;48.810;2.134;2022-08-19T13:09:38;1.33;;;0.70;;
70780;SDS011;59514;48.810;2.134;2022-08-19T13:12:06;1.98;;;1.10;;
70780;SDS011;59514;48.810;2.134;2022-08-19T13:14:33;0.90;;;0.60;;
70780;SDS011;59514;48.810;2.134;2022-08-19T13:17:00;0.82;;;0.80;;
70780;SDS011;59514;48.810;2.134;2022-08-19T13:19:25;0.77;;;0.77;;
70780;SDS011;59514;48.810;2.134;2022-08-19T13:21:51;1.15;;;0.80;;
70780;SDS011;59514;48.810;2.134;2022-08-19T13:24:18;1.60;;;0.73;;
70780;SDS011;59514;48.810;2.134;2022-08-19T13:26:44;3.28;;;1.13;;
70780;SDS011;59514;48.810;2.134;2022-08-19T13:29:09;1.30;;;0.77;;
70780;SDS011;59514;48.810;2.134;2022-08-19T13:31:53;2.85;;;0.85;;
70780;SDS011;59514;48.810;2.134;2022-08-19T13:34:37;0.85;;;0.77;;
70780;SDS011;59514;48.810;2.134;2022-08-19T13:37:03;0.95;;;0.90;;
70780;SDS011;59514;48.810;2.134;2022-08-19T13:39:30;2.17;;;1.00;;
70780;SDS011;59514;48.810;2.134;2022-08-19T13:41:57;2.03;;;0.90;;
70780;SDS011;59514;48.810;2.134;2022-08-19T13:44:25;2.08;;;0.80;;
70780;SDS011;59514;48.810;2.134;2022-08-19T13:46:51;1.90;;;1.10;;
70780;SDS011;59514;48.810;2.134;2022-08-19T13:49:17;2.42;;;0.75;;
70780;SDS011;59514;48.810;2.134;2022-08-19T13:51:43;2.72;;;0.90;;
70780;SDS011;59514;48.810;2.134;2022-08-19T13:54:09;1.88;;;1.10;;
70780;SDS011;59514;48.810;2.134;2022-08-19T13:56:39;1.13;;;0.93;;
70780;SDS011;59514;48.810;2.134;2022-08-19T13:59:06;1.08;;;0.80;;
70780;SDS011;59514;48.810;2.134;2022-08-19T14:01:31;1.02;;;0.85;;
70780;SDS011;59514;48.810;2.134;2022-08-19T14:03:57;1.20;;;0.80;;
70780;SDS011;59514;48.810;2.134;2022-08-19T14:06:22;3.05;;;0.70;;
70780;SDS011;59514;48.810;2.134;2022-08-19T14:08:48;1.95;;;0.90;;
70780;SDS011;59514;48.810;2.134;2022-08-19T14:11:13;0.70;;;0.70;;
70780;SDS011;59514;48.810;2.134;2022-08-19T14:13:39;1.17;;;0.80;;
70780;SDS011;59514;48.810;2.134;2022-08-19T14:16:08;1.00;;;0.90;;
70780;SDS011;59514;48.810;2.134;2022-08-19T14:18:35;2.47;;;1.10;;
70780;SDS011;59514;48.810;2.134;2022-08-19T14:21:00;1.33;;;0.70;;
70780;SDS011;59514;48.810;2.134;2022-08-19T14:23:27;1.27;;;0.77;;
70780;SDS011;59514;48.810;2.134;2022-08-19T14:25:53;1.05;;;0.80;;
70780;SDS011;59514;48.810;2.134;2022-08-19T14:28:20;1.48;;;0.80;;
70780;SDS011;59514;48.810;2.134;2022-08-19T14:30:46;1.50;;;0.90;;
70780;SDS011;59514;48.810;2.134;2022-08-19T14:33:11;1.20;;;0.63;;
70780;SDS011;59514;48.810;2.134;2022-08-19T14:35:37;1.55;;;0.82;;
70780;SDS011;59514;48.810;2.134;2022-08-19T14:38:03;2.88;;;0.73;;
70780;SDS011;59514;48.810;2.134;2022-08-19T14:40:29;1.23;;;0.65;;
70780;SDS011;59514;48.810;2.134;2022-08-19T14:42:57;0.82;;;0.63;;
70780;SDS011;59514;48.810;2.134;2022-08-19T14:45:28;1.20;;;1.10;;
70780;SDS011;59514;48.810;2.134;2022-08-19T14:47:54;2.30;;;0.90;;
70780;SDS011;59514;48.810;2.134;2022-08-19T14:50:20;1.10;;;0.80;;
70780;SDS011;59514;48.810;2.134;2022-08-19T14:52:46;2.42;;;0.82;;
70780;SDS011;59514;48.810;2.134;2022-08-19T14:55:13;1.58;;;0.85;;
70780;SDS011;59514;48.810;2.134;2022-08-19T14:57:42;1.98;;;0.90;;
70780;SDS011;59514;48.810;2.134;2022-08-19T15:00:08;1.15;;;0.82;;